Terminal Aerodrome Forecast
Issued by NWS

Home | Current Version | Previous Version | Text Only | Print | Product List | Glossary On
Versions: 1 2 3 4 5 6 7 8 9 10 11 12 13 14 15 16 17 18 19 20 21 22 23
000
FTAK31 PAJN 142300
TAFAJN
TAF
PAJN 142328Z 1500/1524 25008KT P6SM BCFG FEW003 SCT200
     FM150200 VRB03KT P6SM FEW030 SCT060
     FM150900 00000KT P6SM VCFG FEW005 BKN050
      TEMPO 1511/1513 1SM BR BKN005 BKN050
     FM151300 00000KT 1SM BR BKN002 BKN050
     FM151900 22005KT 5SM BR SCT003 BKN010 BKN100
     FM152100 22008KT P6SM SCT010 BKN080=

USA.gov is the U.S. government's official web portal to all federal, state and local government web resources and services.